sensor_id;sensor_type;location;lat;lon;timestamp;temperature;humidity
31967;DHT22;18496;52.042;6.812;2022-11-15T00:01:18;10.50;99.90
31967;DHT22;18496;52.042;6.812;2022-11-15T00:03:40;10.60;99.90
31967;DHT22;18496;52.042;6.812;2022-11-15T00:06:03;10.50;99.90
31967;DHT22;18496;52.042;6.812;2022-11-15T00:08:32;10.50;99.90
31967;DHT22;18496;52.042;6.812;2022-11-15T00:10:59;10.50;99.90
31967;DHT22;18496;52.042;6.812;2022-11-15T00:13:21;10.40;99.90
31967;DHT22;18496;52.042;6.812;2022-11-15T00:15:44;10.40;99.90
31967;DHT22;18496;52.042;6.812;2022-11-15T00:18:13;10.50;99.90
31967;DHT22;18496;52.042;6.812;2022-11-15T00:20:36;10.50;99.90
31967;DHT22;18496;52.042;6.812;2022-11-15T00:22:58;10.50;99.90
31967;DHT22;18496;52.042;6.812;2022-11-15T00:25:20;10.50;99.90
31967;DHT22;18496;52.042;6.812;2022-11-15T00:27:42;10.50;99.90
31967;DHT22;18496;52.042;6.812;2022-11-15T00:30:05;10.50;99.90
31967;DHT22;18496;52.042;6.812;2022-11-15T00:32:31;10.60;99.90
31967;DHT22;18496;52.042;6.812;2022-11-15T00:34:53;10.50;99.90
31967;DHT22;18496;52.042;6.812;2022-11-15T00:37:16;10.60;99.90
31967;DHT22;18496;52.042;6.812;2022-11-15T00:39:38;10.60;99.90
31967;DHT22;18496;52.042;6.812;2022-11-15T00:42:00;10.60;99.90
31967;DHT22;18496;52.042;6.812;2022-11-15T00:44:22;10.60;99.90
31967;DHT22;18496;52.042;6.812;2022-11-15T00:46:44;10.60;99.90
31967;DHT22;18496;52.042;6.812;2022-11-15T00:49:06;10.60;99.90
31967;DHT22;18496;52.042;6.812;2022-11-15T00:51:28;10.60;99.90
31967;DHT22;18496;52.042;6.812;2022-11-15T00:53:50;10.60;99.90
31967;DHT22;18496;52.042;6.812;2022-11-15T00:56:13;10.70;99.90
31967;DHT22;18496;52.042;6.812;2022-11-15T00:58:35;10.70;99.90
31967;DHT22;18496;52.042;6.812;2022-11-15T01:01:12;10.70;99.90
31967;DHT22;18496;52.042;6.812;2022-11-15T01:03:35;10.70;99.90
31967;DHT22;18496;52.042;6.812;2022-11-15T01:06:01;10.80;99.90
31967;DHT22;18496;52.042;6.812;2022-11-15T01:08:23;10.80;99.90
31967;DHT22;18496;52.042;6.812;2022-11-15T01:10:46;10.80;99.90
31967;DHT22;18496;52.042;6.812;2022-11-15T01:13:09;10.70;99.90
31967;DHT22;18496;52.042;6.812;2022-11-15T01:15:31;10.70;99.90
31967;DHT22;18496;52.042;6.812;2022-11-15T01:17:53;10.70;99.90
31967;DHT22;18496;52.042;6.812;2022-11-15T01:20:15;10.70;99.90
31967;DHT22;18496;52.042;6.812;2022-11-15T01:22:37;10.70;99.90
31967;DHT22;18496;52.042;6.812;2022-11-15T01:24:59;10.70;99.90
31967;DHT22;18496;52.042;6.812;2022-11-15T01:27:21;10.80;99.90
31967;DHT22;18496;52.042;6.812;2022-11-15T01:29:43;10.80;99.90
31967;DHT22;18496;52.042;6.812;2022-11-15T01:32:05;10.80;99.90
31967;DHT22;18496;52.042;6.812;2022-11-15T01:34:27;10.80;99.90
31967;DHT22;18496;52.042;6.812;2022-11-15T01:36:49;10.80;99.90
31967;DHT22;18496;52.042;6.812;2022-11-15T01:39:11;10.80;99.90
31967;DHT22;18496;52.042;6.812;2022-11-15T01:41:34;10.80;99.90
31967;DHT22;18496;52.042;6.812;2022-11-15T01:44:28;10.80;99.90
31967;DHT22;18496;52.042;6.812;2022-11-15T01:46:47;10.90;99.90
31967;DHT22;18496;52.042;6.812;2022-11-15T01:49:15;10.90;99.90
31967;DHT22;18496;52.042;6.812;2022-11-15T01:51:39;10.90;99.90
31967;DHT22;18496;52.042;6.812;2022-11-15T01:54:06;10.90;99.90
31967;DHT22;18496;52.042;6.812;2022-11-15T01:56:32;10.90;99.90
31967;DHT22;18496;52.042;6.812;2022-11-15T01:58:57;11.00;99.90
31967;DHT22;18496;52.042;6.812;2022-11-15T02:01:21;11.00;99.90
31967;DHT22;18496;52.042;6.812;2022-11-15T02:03:58;11.00;99.90
31967;DHT22;18496;52.042;6.812;2022-11-15T02:06:22;11.00;99.90
31967;DHT22;18496;52.042;6.812;2022-11-15T02:08:44;11.00;99.90
31967;DHT22;18496;52.042;6.812;2022-11-15T02:11:09;11.00;99.90
31967;DHT22;18496;52.042;6.812;2022-11-15T02:13:32;11.00;99.90
31967;DHT22;18496;52.042;6.812;2022-11-15T02:18:57;11.10;99.90
31967;DHT22;18496;52.042;6.812;2022-11-15T02:21:28;11.10;99.90
31967;DHT22;18496;52.042;6.812;2022-11-15T02:29:28;11.10;99.90
31967;DHT22;18496;52.042;6.812;2022-11-15T02:42:46;11.20;99.90
31967;DHT22;18496;52.042;6.812;2022-11-15T02:45:31;11.20;99.90
31967;DHT22;18496;52.042;6.812;2022-11-15T02:47:56;11.20;99.90
31967;DHT22;18496;52.042;6.812;2022-11-15T02:50:24;11.30;99.90
31967;DHT22;18496;52.042;6.812;2022-11-15T02:52:48;11.30;99.90
31967;DHT22;18496;52.042;6.812;2022-11-15T03:11:43;11.50;99.90
31967;DHT22;18496;52.042;6.812;2022-11-15T03:17:26;11.60;99.90
31967;DHT22;18496;52.042;6.812;2022-11-15T03:20:04;11.60;99.90
31967;DHT22;18496;52.042;6.812;2022-11-15T03:22:29;11.60;99.90
31967;DHT22;18496;52.042;6.812;2022-11-15T03:24:54;11.60;99.90
31967;DHT22;18496;52.042;6.812;2022-11-15T03:27:23;11.60;99.90
31967;DHT22;18496;52.042;6.812;2022-11-15T03:29:50;11.60;99.90
31967;DHT22;18496;52.042;6.812;2022-11-15T03:32:17;11.70;99.90
31967;DHT22;18496;52.042;6.812;2022-11-15T03:35:09;11.60;99.90
31967;DHT22;18496;52.042;6.812;2022-11-15T03:38:19;11.70;99.90
31967;DHT22;18496;52.042;6.812;2022-11-15T03:40:49;11.70;99.90
31967;DHT22;18496;52.042;6.812;2022-11-15T03:43:34;11.70;99.90
31967;DHT22;18496;52.042;6.812;2022-11-15T03:46:13;11.70;99.90
31967;DHT22;18496;52.042;6.812;2022-11-15T03:48:41;11.70;99.90
31967;DHT22;18496;52.042;6.812;2022-11-15T03:51:05;11.80;99.90
31967;DHT22;18496;52.042;6.812;2022-11-15T03:53:28;11.70;99.90
31967;DHT22;18496;52.042;6.812;2022-11-15T03:55:50;11.80;99.90
31967;DHT22;18496;52.042;6.812;2022-11-15T03:58:12;11.70;99.90
31967;DHT22;18496;52.042;6.812;2022-11-15T04:00:34;11.80;99.90
31967;DHT22;18496;52.042;6.812;2022-11-15T04:02:56;11.80;99.90
31967;DHT22;18496;52.042;6.812;2022-11-15T04:05:19;11.80;99.90
31967;DHT22;18496;52.042;6.812;2022-11-15T04:07:41;11.80;99.90
31967;DHT22;18496;52.042;6.812;2022-11-15T04:10:03;11.80;99.90
31967;DHT22;18496;52.042;6.812;2022-11-15T04:12:27;11.80;99.90
31967;DHT22;18496;52.042;6.812;2022-11-15T04:14:55;11.80;99.90
31967;DHT22;18496;52.042;6.812;2022-11-15T04:17:29;11.80;99.90
31967;DHT22;18496;52.042;6.812;2022-11-15T04:19:51;11.90;99.90
31967;DHT22;18496;52.042;6.812;2022-11-15T04:22:32;11.90;99.90
31967;DHT22;18496;52.042;6.812;2022-11-15T04:25:13;11.80;99.90
31967;DHT22;18496;52.042;6.812;2022-11-15T04:27:35;11.90;99.90
31967;DHT22;18496;52.042;6.812;2022-11-15T04:29:57;11.90;99.90
31967;DHT22;18496;52.042;6.812;2022-11-15T04:32:19;11.90;99.90
31967;DHT22;18496;52.042;6.812;2022-11-15T04:34:41;11.90;99.90
31967;DHT22;18496;52.042;6.812;2022-11-15T04:37:03;11.90;99.90
31967;DHT22;18496;52.042;6.812;2022-11-15T04:39:34;11.90;99.90
31967;DHT22;18496;52.042;6.812;2022-11-15T04:41:57;12.00;99.90
31967;DHT22;18496;52.042;6.812;2022-11-15T04:44:19;12.00;99.90
31967;DHT22;18496;52.042;6.812;2022-11-15T04:46:41;12.00;99.90
31967;DHT22;18496;52.042;6.812;2022-11-15T04:49:03;12.00;99.90
31967;DHT22;18496;52.042;6.812;2022-11-15T04:51:26;12.00;99.90
31967;DHT22;18496;52.042;6.812;2022-11-15T04:53:48;12.00;99.90
31967;DHT22;18496;52.042;6.812;2022-11-15T04:56:10;12.00;99.90
31967;DHT22;18496;52.042;6.812;2022-11-15T04:58:33;12.00;99.90
31967;DHT22;18496;52.042;6.812;2022-11-15T05:00:55;12.00;99.90
31967;DHT22;18496;52.042;6.812;2022-11-15T05:03:17;12.00;99.90
31967;DHT22;18496;52.042;6.812;2022-11-15T05:05:58;12.10;99.90
31967;DHT22;18496;52.042;6.812;2022-11-15T05:08:21;12.10;99.90
31967;DHT22;18496;52.042;6.812;2022-11-15T05:10:43;12.10;99.90
31967;DHT22;18496;52.042;6.812;2022-11-15T05:13:05;12.10;99.90
31967;DHT22;18496;52.042;6.812;2022-11-15T05:15:27;12.10;99.90
31967;DHT22;18496;52.042;6.812;2022-11-15T05:17:49;12.10;99.90
31967;DHT22;18496;52.042;6.812;2022-11-15T05:20:11;12.10;99.90
31967;DHT22;18496;52.042;6.812;2022-11-15T05:22:33;12.10;99.90
31967;DHT22;18496;52.042;6.812;2022-11-15T05:24:56;12.20;99.90
31967;DHT22;18496;52.042;6.812;2022-11-15T05:27:18;12.20;99.90
31967;DHT22;18496;52.042;6.812;2022-11-15T05:29:40;12.20;99.90
31967;DHT22;18496;52.042;6.812;2022-11-15T05:32:04;12.20;99.90
31967;DHT22;18496;52.042;6.812;2022-11-15T05:34:27;12.30;99.90
31967;DHT22;18496;52.042;6.812;2022-11-15T05:36:49;12.30;99.90
31967;DHT22;18496;52.042;6.812;2022-11-15T05:39:11;12.30;99.90
31967;DHT22;18496;52.042;6.812;2022-11-15T05:41:43;12.30;99.90
31967;DHT22;18496;52.042;6.812;2022-11-15T05:44:08;12.20;99.90
31967;DHT22;18496;52.042;6.812;2022-11-15T05:46:32;12.20;99.90
31967;DHT22;18496;52.042;6.812;2022-11-15T05:48:56;12.20;99.90
31967;DHT22;18496;52.042;6.812;2022-11-15T05:51:20;12.20;99.90
31967;DHT22;18496;52.042;6.812;2022-11-15T05:53:43;12.20;99.90
31967;DHT22;18496;52.042;6.812;2022-11-15T05:56:06;12.20;99.90
31967;DHT22;18496;52.042;6.812;2022-11-15T05:58:28;12.20;99.90
31967;DHT22;18496;52.042;6.812;2022-11-15T06:00:50;12.20;99.90
31967;DHT22;18496;52.042;6.812;2022-11-15T06:03:12;12.20;99.90
31967;DHT22;18496;52.042;6.812;2022-11-15T06:05:36;12.20;99.90
31967;DHT22;18496;52.042;6.812;2022-11-15T06:07:58;12.30;99.90
31967;DHT22;18496;52.042;6.812;2022-11-15T06:10:21;12.30;99.90
31967;DHT22;18496;52.042;6.812;2022-11-15T06:12:43;12.30;99.90
31967;DHT22;18496;52.042;6.812;2022-11-15T06:15:05;12.30;99.90
31967;DHT22;18496;52.042;6.812;2022-11-15T06:17:28;12.30;99.90
31967;DHT22;18496;52.042;6.812;2022-11-15T06:19:50;12.30;99.90
31967;DHT22;18496;52.042;6.812;2022-11-15T06:22:13;12.30;99.90
31967;DHT22;18496;52.042;6.812;2022-11-15T06:24:35;12.30;99.90
31967;DHT22;18496;52.042;6.812;2022-11-15T06:26:57;12.30;99.90
31967;DHT22;18496;52.042;6.812;2022-11-15T06:29:20;12.30;99.90
31967;DHT22;18496;52.042;6.812;2022-11-15T06:31:42;12.30;99.90
31967;DHT22;18496;52.042;6.812;2022-11-15T06:34:04;12.30;99.90
31967;DHT22;18496;52.042;6.812;2022-11-15T06:36:26;12.30;99.90
31967;DHT22;18496;52.042;6.812;2022-11-15T06:38:48;12.30;99.90
31967;DHT22;18496;52.042;6.812;2022-11-15T06:41:12;12.30;99.90
31967;DHT22;18496;52.042;6.812;2022-11-15T06:43:35;12.30;99.90
31967;DHT22;18496;52.042;6.812;2022-11-15T06:45:58;12.30;99.90
31967;DHT22;18496;52.042;6.812;2022-11-15T06:48:21;12.30;99.90
31967;DHT22;18496;52.042;6.812;2022-11-15T06:50:52;12.30;99.90
31967;DHT22;18496;52.042;6.812;2022-11-15T06:53:14;12.30;99.90
31967;DHT22;18496;52.042;6.812;2022-11-15T06:55:36;12.30;99.90
31967;DHT22;18496;52.042;6.812;2022-11-15T06:57:58;12.30;99.90
31967;DHT22;18496;52.042;6.812;2022-11-15T07:00:21;12.30;99.90
31967;DHT22;18496;52.042;6.812;2022-11-15T07:02:44;12.30;99.90
31967;DHT22;18496;52.042;6.812;2022-11-15T07:05:06;12.30;99.90
31967;DHT22;18496;52.042;6.812;2022-11-15T07:07:28;12.40;99.90
31967;DHT22;18496;52.042;6.812;2022-11-15T07:09:50;12.40;99.90
31967;DHT22;18496;52.042;6.812;2022-11-15T07:12:12;12.40;99.90
31967;DHT22;18496;52.042;6.812;2022-11-15T07:14:34;12.40;99.90
31967;DHT22;18496;52.042;6.812;2022-11-15T07:16:57;12.40;99.90
31967;DHT22;18496;52.042;6.812;2022-11-15T07:19:19;12.40;99.90
31967;DHT22;18496;52.042;6.812;2022-11-15T07:21:41;12.40;99.90
31967;DHT22;18496;52.042;6.812;2022-11-15T07:24:03;12.40;99.90
31967;DHT22;18496;52.042;6.812;2022-11-15T07:26:26;12.40;99.90
31967;DHT22;18496;52.042;6.812;2022-11-15T07:28:48;12.40;99.90
31967;DHT22;18496;52.042;6.812;2022-11-15T07:31:10;12.40;99.90
31967;DHT22;18496;52.042;6.812;2022-11-15T07:33:32;12.50;99.90
31967;DHT22;18496;52.042;6.812;2022-11-15T07:35:59;12.50;99.90
31967;DHT22;18496;52.042;6.812;2022-11-15T07:38:23;12.50;99.90
31967;DHT22;18496;52.042;6.812;2022-11-15T07:40:46;12.50;99.90
31967;DHT22;18496;52.042;6.812;2022-11-15T07:43:09;12.50;99.90
31967;DHT22;18496;52.042;6.812;2022-11-15T07:45:34;12.50;99.90
31967;DHT22;18496;52.042;6.812;2022-11-15T07:48:02;12.50;99.90
31967;DHT22;18496;52.042;6.812;2022-11-15T07:50:24;12.50;99.90
31967;DHT22;18496;52.042;6.812;2022-11-15T07:52:46;12.50;99.90
31967;DHT22;18496;52.042;6.812;2022-11-15T07:55:09;12.50;99.90
31967;DHT22;18496;52.042;6.812;2022-11-15T07:57:31;12.50;99.90
31967;DHT22;18496;52.042;6.812;2022-11-15T07:59:53;12.50;99.90
31967;DHT22;18496;52.042;6.812;2022-11-15T08:02:15;12.50;99.90
31967;DHT22;18496;52.042;6.812;2022-11-15T08:04:39;12.50;99.90
31967;DHT22;18496;52.042;6.812;2022-11-15T08:07:05;12.50;99.90
31967;DHT22;18496;52.042;6.812;2022-11-15T08:12:58;12.50;99.90
31967;DHT22;18496;52.042;6.812;2022-11-15T08:15:47;12.50;99.90
31967;DHT22;18496;52.042;6.812;2022-11-15T08:18:30;12.50;99.90
31967;DHT22;18496;52.042;6.812;2022-11-15T08:20:59;12.50;99.90
31967;DHT22;18496;52.042;6.812;2022-11-15T08:23:28;12.50;99.90
31967;DHT22;18496;52.042;6.812;2022-11-15T08:26:03;12.60;99.90
31967;DHT22;18496;52.042;6.812;2022-11-15T08:54:03;12.70;99.90
31967;DHT22;18496;52.042;6.812;2022-11-15T08:56:36;12.70;99.90
31967;DHT22;18496;52.042;6.812;2022-11-15T08:59:07;12.70;99.90
31967;DHT22;18496;52.042;6.812;2022-11-15T09:01:29;12.70;99.90
31967;DHT22;18496;52.042;6.812;2022-11-15T09:04:05;12.70;99.90
31967;DHT22;18496;52.042;6.812;2022-11-15T09:09:20;12.70;99.90
31967;DHT22;18496;52.042;6.812;2022-11-15T09:12:08;12.80;99.90
31967;DHT22;18496;52.042;6.812;2022-11-15T09:14:34;12.80;99.90
31967;DHT22;18496;52.042;6.812;2022-11-15T09:16:56;12.80;99.90
31967;DHT22;18496;52.042;6.812;2022-11-15T09:19:19;12.80;99.90
31967;DHT22;18496;52.042;6.812;2022-11-15T09:21:49;12.90;99.90
31967;DHT22;18496;52.042;6.812;2022-11-15T09:24:36;12.90;99.90
31967;DHT22;18496;52.042;6.812;2022-11-15T09:27:15;12.90;99.90
31967;DHT22;18496;52.042;6.812;2022-11-15T09:29:47;12.90;99.90
31967;DHT22;18496;52.042;6.812;2022-11-15T09:32:18;12.90;99.90
31967;DHT22;18496;52.042;6.812;2022-11-15T09:34:59;12.90;99.90
31967;DHT22;18496;52.042;6.812;2022-11-15T09:37:24;12.90;99.90
31967;DHT22;18496;52.042;6.812;2022-11-15T09:39:46;12.90;99.90
31967;DHT22;18496;52.042;6.812;2022-11-15T09:48:53;12.90;99.90
31967;DHT22;18496;52.042;6.812;2022-11-15T09:52:12;12.80;99.90
31967;DHT22;18496;52.042;6.812;2022-11-15T10:00:42;12.90;99.90
31967;DHT22;18496;52.042;6.812;2022-11-15T10:05:47;12.90;99.90
31967;DHT22;18496;52.042;6.812;2022-11-15T10:11:30;13.00;99.90
31967;DHT22;18496;52.042;6.812;2022-11-15T10:14:25;13.00;99.90
31967;DHT22;18496;52.042;6.812;2022-11-15T10:17:37;13.00;99.90
31967;DHT22;18496;52.042;6.812;2022-11-15T10:20:22;13.10;99.90
31967;DHT22;18496;52.042;6.812;2022-11-15T10:22:50;13.10;99.90
31967;DHT22;18496;52.042;6.812;2022-11-15T10:25:38;13.20;99.90
31967;DHT22;18496;52.042;6.812;2022-11-15T10:30:41;13.30;99.90
31967;DHT22;18496;52.042;6.812;2022-11-15T10:33:39;13.40;99.90
31967;DHT22;18496;52.042;6.812;2022-11-15T10:36:28;13.40;99.90
31967;DHT22;18496;52.042;6.812;2022-11-15T10:52:24;13.60;99.90
31967;DHT22;18496;52.042;6.812;2022-11-15T10:55:05;13.70;99.90
31967;DHT22;18496;52.042;6.812;2022-11-15T10:57:36;13.70;99.90
31967;DHT22;18496;52.042;6.812;2022-11-15T11:03:45;13.80;99.90
31967;DHT22;18496;52.042;6.812;2022-11-15T11:06:30;13.80;99.90
31967;DHT22;18496;52.042;6.812;2022-11-15T11:08:39;13.90;99.90
31967;DHT22;18496;52.042;6.812;2022-11-15T11:21:21;14.10;99.90
31967;DHT22;18496;52.042;6.812;2022-11-15T11:37:52;14.30;99.90
31967;DHT22;18496;52.042;6.812;2022-11-15T11:43:06;14.30;99.90
31967;DHT22;18496;52.042;6.812;2022-11-15T11:45:42;14.30;99.90
31967;DHT22;18496;52.042;6.812;2022-11-15T11:50:25;14.40;99.90
31967;DHT22;18496;52.042;6.812;2022-11-15T11:56:43;14.40;99.90
31967;DHT22;18496;52.042;6.812;2022-11-15T12:02:37;14.60;99.90
31967;DHT22;18496;52.042;6.812;2022-11-15T12:07:54;14.60;99.90
31967;DHT22;18496;52.042;6.812;2022-11-15T12:10:26;14.70;99.90
31967;DHT22;18496;52.042;6.812;2022-11-15T12:18:23;14.70;99.90
31967;DHT22;18496;52.042;6.812;2022-11-15T12:21:13;14.70;99.90
31967;DHT22;18496;52.042;6.812;2022-11-15T12:39:15;14.80;99.90
31967;DHT22;18496;52.042;6.812;2022-11-15T12:50:12;14.80;99.90
31967;DHT22;18496;52.042;6.812;2022-11-15T12:55:39;14.70;99.90
31967;DHT22;18496;52.042;6.812;2022-11-15T13:04:23;14.70;99.90
31967;DHT22;18496;52.042;6.812;2022-11-15T13:08:59;14.70;99.90
31967;DHT22;18496;52.042;6.812;2022-11-15T13:11:43;14.70;99.90
31967;DHT22;18496;52.042;6.812;2022-11-15T13:20:44;14.60;99.90
31967;DHT22;18496;52.042;6.812;2022-11-15T13:26:16;14.60;99.90
31967;DHT22;18496;52.042;6.812;2022-11-15T13:31:12;14.60;99.90
31967;DHT22;18496;52.042;6.812;2022-11-15T13:33:42;14.70;99.90
31967;DHT22;18496;52.042;6.812;2022-11-15T13:39:25;14.70;99.90
31967;DHT22;18496;52.042;6.812;2022-11-15T13:41:28;14.70;99.90
31967;DHT22;18496;52.042;6.812;2022-11-15T13:46:40;14.60;99.90
31967;DHT22;18496;52.042;6.812;2022-11-15T13:49:03;14.70;99.90
31967;DHT22;18496;52.042;6.812;2022-11-15T13:51:24;14.70;99.90
31967;DHT22;18496;52.042;6.812;2022-11-15T13:53:41;14.70;99.90
31967;DHT22;18496;52.042;6.812;2022-11-15T13:56:18;14.70;99.90
31967;DHT22;18496;52.042;6.812;2022-11-15T13:58:36;14.70;99.90
31967;DHT22;18496;52.042;6.812;2022-11-15T14:35:19;14.80;99.90
31967;DHT22;18496;52.042;6.812;2022-11-15T14:38:29;14.90;99.90
31967;DHT22;18496;52.042;6.812;2022-11-15T14:40:47;14.90;99.90
31967;DHT22;18496;52.042;6.812;2022-11-15T14:43:24;14.90;99.90
31967;DHT22;18496;52.042;6.812;2022-11-15T14:45:56;14.90;99.90
31967;DHT22;18496;52.042;6.812;2022-11-15T14:48:02;14.90;99.90
31967;DHT22;18496;52.042;6.812;2022-11-15T14:50:10;14.90;99.90
31967;DHT22;18496;52.042;6.812;2022-11-15T14:52:29;14.90;99.90
31967;DHT22;18496;52.042;6.812;2022-11-15T14:54:38;14.80;99.90
31967;DHT22;18496;52.042;6.812;2022-11-15T14:56:48;14.90;99.90
31967;DHT22;18496;52.042;6.812;2022-11-15T14:59:00;14.90;99.90
31967;DHT22;18496;52.042;6.812;2022-11-15T15:01:26;14.80;99.80
31967;DHT22;18496;52.042;6.812;2022-11-15T15:03:40;14.80;99.90
31967;DHT22;18496;52.042;6.812;2022-11-15T15:05:56;14.80;99.90
31967;DHT22;18496;52.042;6.812;2022-11-15T15:08:13;14.80;99.90
31967;DHT22;18496;52.042;6.812;2022-11-15T15:10:42;14.80;99.90
31967;DHT22;18496;52.042;6.812;2022-11-15T15:13:05;14.80;99.90
31967;DHT22;18496;52.042;6.812;2022-11-15T15:15:35;14.80;99.90
31967;DHT22;18496;52.042;6.812;2022-11-15T15:17:55;14.80;99.90
31967;DHT22;18496;52.042;6.812;2022-11-15T15:19:58;14.70;99.90
31967;DHT22;18496;52.042;6.812;2022-11-15T15:22:08;14.70;99.90
31967;DHT22;18496;52.042;6.812;2022-11-15T15:24:18;14.70;99.90
31967;DHT22;18496;52.042;6.812;2022-11-15T15:26:27;14.70;99.90
31967;DHT22;18496;52.042;6.812;2022-11-15T15:28:33;14.70;99.90
31967;DHT22;18496;52.042;6.812;2022-11-15T15:30:41;14.70;99.90
31967;DHT22;18496;52.042;6.812;2022-11-15T15:32:45;14.70;99.90
31967;DHT22;18496;52.042;6.812;2022-11-15T15:34:49;14.70;99.90
31967;DHT22;18496;52.042;6.812;2022-11-15T15:39:15;14.80;99.90
31967;DHT22;18496;52.042;6.812;2022-11-15T15:41:19;14.80;99.90
31967;DHT22;18496;52.042;6.812;2022-11-15T15:43:22;14.80;99.90
31967;DHT22;18496;52.042;6.812;2022-11-15T15:45:26;14.80;99.90
31967;DHT22;18496;52.042;6.812;2022-11-15T15:47:31;14.80;99.90
31967;DHT22;18496;52.042;6.812;2022-11-15T15:49:34;14.80;99.90
31967;DHT22;18496;52.042;6.812;2022-11-15T15:54:55;14.90;99.90
31967;DHT22;18496;52.042;6.812;2022-11-15T15:56:59;14.80;99.90
31967;DHT22;18496;52.042;6.812;2022-11-15T15:59:03;14.80;99.90
31967;DHT22;18496;52.042;6.812;2022-11-15T16:01:15;14.70;99.90
31967;DHT22;18496;52.042;6.812;2022-11-15T16:03:19;14.70;99.90
31967;DHT22;18496;52.042;6.812;2022-11-15T16:05:26;14.70;99.90
31967;DHT22;18496;52.042;6.812;2022-11-15T16:07:33;14.70;99.90
31967;DHT22;18496;52.042;6.812;2022-11-15T16:09:40;14.60;99.90
31967;DHT22;18496;52.042;6.812;2022-11-15T16:12:06;14.70;99.90
31967;DHT22;18496;52.042;6.812;2022-11-15T16:14:15;14.60;99.90
31967;DHT22;18496;52.042;6.812;2022-11-15T16:16:26;14.70;99.90
31967;DHT22;18496;52.042;6.812;2022-11-15T16:18:30;14.70;99.90
31967;DHT22;18496;52.042;6.812;2022-11-15T16:20:40;14.70;99.90
31967;DHT22;18496;52.042;6.812;2022-11-15T16:22:52;14.70;99.90
31967;DHT22;18496;52.042;6.812;2022-11-15T16:25:01;14.70;99.90
31967;DHT22;18496;52.042;6.812;2022-11-15T16:27:34;14.70;99.90
31967;DHT22;18496;52.042;6.812;2022-11-15T16:30:37;14.70;99.90
31967;DHT22;18496;52.042;6.812;2022-11-15T16:32:55;14.70;99.90
31967;DHT22;18496;52.042;6.812;2022-11-15T16:35:15;14.60;99.90
31967;DHT22;18496;52.042;6.812;2022-11-15T16:37:37;14.60;99.90
31967;DHT22;18496;52.042;6.812;2022-11-15T16:39:49;14.60;99.90
31967;DHT22;18496;52.042;6.812;2022-11-15T16:42:04;14.70;99.90
31967;DHT22;18496;52.042;6.812;2022-11-15T16:44:28;14.70;99.90
31967;DHT22;18496;52.042;6.812;2022-11-15T16:46:35;14.60;99.90
31967;DHT22;18496;52.042;6.812;2022-11-15T16:48:44;14.60;99.90
31967;DHT22;18496;52.042;6.812;2022-11-15T16:59:48;14.60;99.90
31967;DHT22;18496;52.042;6.812;2022-11-15T17:02:01;14.60;99.90
31967;DHT22;18496;52.042;6.812;2022-11-15T17:04:29;14.50;99.90
31967;DHT22;18496;52.042;6.812;2022-11-15T17:06:52;14.60;99.90
31967;DHT22;18496;52.042;6.812;2022-11-15T17:09:00;14.60;99.90
31967;DHT22;18496;52.042;6.812;2022-11-15T17:11:08;14.60;99.90
31967;DHT22;18496;52.042;6.812;2022-11-15T17:13:25;14.60;99.90
31967;DHT22;18496;52.042;6.812;2022-11-15T17:16:34;14.60;99.90
31967;DHT22;18496;52.042;6.812;2022-11-15T17:19:19;14.60;99.90
31967;DHT22;18496;52.042;6.812;2022-11-15T17:21:44;14.60;99.90
31967;DHT22;18496;52.042;6.812;2022-11-15T17:23:58;14.60;99.90
31967;DHT22;18496;52.042;6.812;2022-11-15T17:26:24;14.60;99.90
31967;DHT22;18496;52.042;6.812;2022-11-15T17:28:45;14.50;99.90
31967;DHT22;18496;52.042;6.812;2022-11-15T17:31:13;14.50;99.90
31967;DHT22;18496;52.042;6.812;2022-11-15T17:33:20;14.50;99.90
31967;DHT22;18496;52.042;6.812;2022-11-15T17:35:27;14.50;99.90
31967;DHT22;18496;52.042;6.812;2022-11-15T17:37:33;14.50;99.90
31967;DHT22;18496;52.042;6.812;2022-11-15T17:39:42;14.50;99.90
31967;DHT22;18496;52.042;6.812;2022-11-15T17:41:49;14.50;99.90
31967;DHT22;18496;52.042;6.812;2022-11-15T17:44:16;14.50;99.90
31967;DHT22;18496;52.042;6.812;2022-11-15T17:46:56;14.50;99.90
31967;DHT22;18496;52.042;6.812;2022-11-15T17:49:07;14.50;99.90
31967;DHT22;18496;52.042;6.812;2022-11-15T17:51:19;14.50;99.90
31967;DHT22;18496;52.042;6.812;2022-11-15T17:56:47;14.40;99.90
31967;DHT22;18496;52.042;6.812;2022-11-15T18:02:37;14.40;99.90
31967;DHT22;18496;52.042;6.812;2022-11-15T18:05:11;14.40;99.90
31967;DHT22;18496;52.042;6.812;2022-11-15T18:07:15;14.40;99.90
31967;DHT22;18496;52.042;6.812;2022-11-15T18:09:44;14.40;99.90
31967;DHT22;18496;52.042;6.812;2022-11-15T18:14:39;14.40;99.90
31967;DHT22;18496;52.042;6.812;2022-11-15T18:16:45;14.40;99.90
31967;DHT22;18496;52.042;6.812;2022-11-15T18:18:53;14.40;99.90
31967;DHT22;18496;52.042;6.812;2022-11-15T18:21:05;14.40;99.90
31967;DHT22;18496;52.042;6.812;2022-11-15T18:23:33;14.40;99.90
31967;DHT22;18496;52.042;6.812;2022-11-15T18:26:06;14.40;99.90
31967;DHT22;18496;52.042;6.812;2022-11-15T18:28:12;14.40;99.90
31967;DHT22;18496;52.042;6.812;2022-11-15T18:30:16;14.40;99.90
31967;DHT22;18496;52.042;6.812;2022-11-15T18:32:20;14.40;99.90
31967;DHT22;18496;52.042;6.812;2022-11-15T18:34:25;14.40;99.90
31967;DHT22;18496;52.042;6.812;2022-11-15T18:36:34;14.40;99.90
31967;DHT22;18496;52.042;6.812;2022-11-15T18:38:38;14.40;99.90
31967;DHT22;18496;52.042;6.812;2022-11-15T18:40:42;14.50;99.90
31967;DHT22;18496;52.042;6.812;2022-11-15T18:42:46;14.40;99.90
31967;DHT22;18496;52.042;6.812;2022-11-15T18:44:49;14.40;99.90
31967;DHT22;18496;52.042;6.812;2022-11-15T18:46:53;14.40;99.90
31967;DHT22;18496;52.042;6.812;2022-11-15T18:48:58;14.40;99.90
31967;DHT22;18496;52.042;6.812;2022-11-15T18:51:03;14.40;99.90
31967;DHT22;18496;52.042;6.812;2022-11-15T18:53:07;14.50;99.90
31967;DHT22;18496;52.042;6.812;2022-11-15T18:55:11;14.50;99.90
31967;DHT22;18496;52.042;6.812;2022-11-15T18:57:20;14.50;99.90
31967;DHT22;18496;52.042;6.812;2022-11-15T18:59:23;14.50;99.90
31967;DHT22;18496;52.042;6.812;2022-11-15T19:01:37;14.50;99.90
31967;DHT22;18496;52.042;6.812;2022-11-15T19:03:43;14.50;99.90
31967;DHT22;18496;52.042;6.812;2022-11-15T20:26:35;14.40;99.90
31967;DHT22;18496;52.042;6.812;2022-11-15T20:28:39;14.30;99.90
31967;DHT22;18496;52.042;6.812;2022-11-15T20:30:44;14.30;99.90
31967;DHT22;18496;52.042;6.812;2022-11-15T20:32:48;14.30;99.90
31967;DHT22;18496;52.042;6.812;2022-11-15T20:34:52;14.30;99.90
31967;DHT22;18496;52.042;6.812;2022-11-15T20:36:56;14.30;99.90
31967;DHT22;18496;52.042;6.812;2022-11-15T20:39:00;14.30;99.90
31967;DHT22;18496;52.042;6.812;2022-11-15T20:41:04;14.30;99.90
31967;DHT22;18496;52.042;6.812;2022-11-15T20:43:11;14.30;99.90
31967;DHT22;18496;52.042;6.812;2022-11-15T20:45:15;14.20;99.90
31967;DHT22;18496;52.042;6.812;2022-11-15T20:47:18;14.30;99.90